createdAt,value
2018-09-03T00:02:17.271Z,52.40
2018-09-03T00:04:45.601Z,52.60
2018-09-03T00:07:13.898Z,52.60
2018-09-03T00:09:42.889Z,52.60
2018-09-03T00:12:12.064Z,52.60
2018-09-03T00:14:40.984Z,52.60
2018-09-03T00:17:09.566Z,52.60
2018-09-03T00:19:38.268Z,52.60
2018-09-03T00:22:07.021Z,52.60
2018-09-03T00:24:35.621Z,52.70
2018-09-03T00:27:03.940Z,52.80
2018-09-03T00:29:32.282Z,52.70
2018-09-03T00:32:05.943Z,52.80
2018-09-03T00:34:39.774Z,52.60
2018-09-03T00:37:13.610Z,52.50
2018-09-03T00:39:47.417Z,52.50
2018-09-03T00:42:22.317Z,52.40
2018-09-03T00:44:56.176Z,52.50
2018-09-03T00:47:24.634Z,52.50
2018-09-03T00:49:52.983Z,52.60
2018-09-03T00:52:21.788Z,53.10
2018-09-03T00:54:50.123Z,52.50
2018-09-03T00:57:18.460Z,52.50
2018-09-03T00:59:46.813Z,52.60
2018-09-03T01:02:15.204Z,52.60
2018-09-03T01:04:43.612Z,52.60
2018-09-03T01:07:11.920Z,52.60
2018-09-03T01:09:40.344Z,53.30
2018-09-03T01:12:08.687Z,52.70
2018-09-03T01:14:36.977Z,52.70
2018-09-03T01:17:05.338Z,52.70
2018-09-03T01:19:33.695Z,52.70
2018-09-03T01:22:02.004Z,52.80
2018-09-03T01:24:30.392Z,52.70
2018-09-03T01:26:58.836Z,52.70
2018-09-03T01:29:27.312Z,52.80
2018-09-03T01:31:56.534Z,52.80
2018-09-03T01:34:25.959Z,52.90
2018-09-03T01:36:54.294Z,52.90
2018-09-03T01:39:22.688Z,52.90
2018-09-03T01:41:51.029Z,53.00
2018-09-03T01:44:19.376Z,53.00
2018-09-03T01:46:47.755Z,53.00
2018-09-03T01:49:16.094Z,53.00
2018-09-03T01:51:44.469Z,53.00
2018-09-03T01:54:12.887Z,53.00
2018-09-03T01:56:41.246Z,53.10
2018-09-03T01:59:09.598Z,53.10
2018-09-03T02:01:38.064Z,53.10
2018-09-03T02:04:06.642Z,53.20
2018-09-03T02:06:34.971Z,53.30
2018-09-03T02:09:03.834Z,53.30
2018-09-03T02:11:32.139Z,53.20
2018-09-03T02:14:00.488Z,53.30
2018-09-03T02:16:28.814Z,53.30
2018-09-03T02:18:57.160Z,53.30
2018-09-03T02:21:25.496Z,53.30
2018-09-03T02:23:53.856Z,53.20
2018-09-03T02:26:22.202Z,53.30
2018-09-03T02:28:50.582Z,53.30
2018-09-03T02:31:18.897Z,53.40
2018-09-03T02:33:47.226Z,53.40
2018-09-03T02:36:15.680Z,53.00
2018-09-03T02:38:44.095Z,53.50
2018-09-03T02:41:12.407Z,53.50
2018-09-03T02:43:40.724Z,53.50
2018-09-03T02:46:09.097Z,53.50
2018-09-03T02:48:37.436Z,53.60
2018-09-03T02:51:06.476Z,53.60
2018-09-03T02:53:34.871Z,53.60
2018-09-03T02:56:03.220Z,53.60
2018-09-03T02:58:31.544Z,53.70
2018-09-03T03:00:59.871Z,53.80
2018-09-03T03:03:28.211Z,53.80
2018-09-03T03:05:56.598Z,53.80
2018-09-03T03:08:24.938Z,53.80
2018-09-03T03:10:53.295Z,53.80
2018-09-03T03:13:21.571Z,53.80
2018-09-03T03:15:49.891Z,53.90
2018-09-03T03:18:18.232Z,53.90
2018-09-03T03:20:46.560Z,53.90
2018-09-03T03:23:14.875Z,54.00
2018-09-03T03:25:43.215Z,54.00
2018-09-03T03:28:11.581Z,54.20
2018-09-03T03:30:39.988Z,54.10
2018-09-03T03:33:08.305Z,54.10
2018-09-03T03:35:36.628Z,54.20
2018-09-03T03:38:05.298Z,54.30
2018-09-03T03:40:33.850Z,54.30
2018-09-03T03:43:02.166Z,54.30
2018-09-03T03:45:30.519Z,54.30
2018-09-03T03:47:58.861Z,54.20
2018-09-03T03:50:27.194Z,54.30
2018-09-03T03:52:55.537Z,54.80
2018-09-03T03:55:23.898Z,54.30
2018-09-03T03:57:52.283Z,54.90
2018-09-03T04:00:20.655Z,54.20
2018-09-03T04:02:49.010Z,54.40
2018-09-03T04:05:17.331Z,54.60
2018-09-03T04:07:45.682Z,54.30
2018-09-03T04:10:14.037Z,54.30
2018-09-03T04:13:13.182Z,54.30
2018-09-03T04:15:41.515Z,54.20
2018-09-03T04:18:09.853Z,54.40
2018-09-03T04:20:38.179Z,54.30
2018-09-03T04:23:06.618Z,55.00
2018-09-03T04:25:34.972Z,54.20
2018-09-03T04:28:03.317Z,54.40
2018-09-03T04:30:31.658Z,54.30
2018-09-03T04:33:00.082Z,54.30
2018-09-03T04:35:28.425Z,54.40
2018-09-03T04:37:56.741Z,54.40
2018-09-03T04:40:25.131Z,54.40
2018-09-03T04:42:53.707Z,54.40
2018-09-03T04:45:22.090Z,54.50
2018-09-03T04:47:50.488Z,54.40
2018-09-03T04:50:18.899Z,54.40
2018-09-03T04:52:47.276Z,54.50
2018-09-03T04:55:15.668Z,54.50
2018-09-03T04:57:43.993Z,54.50
2018-09-03T05:00:14.366Z,54.50
2018-09-03T05:02:43.169Z,54.50
2018-09-03T05:05:11.495Z,54.50
2018-09-03T05:07:39.908Z,54.50
2018-09-03T05:10:08.354Z,54.50
2018-09-03T05:12:37.074Z,54.60
2018-09-03T05:15:05.511Z,54.60
2018-09-03T05:17:33.930Z,54.60
2018-09-03T05:20:02.328Z,54.50
2018-09-03T05:22:30.734Z,55.10
2018-09-03T05:24:59.143Z,54.50
2018-09-03T05:27:27.598Z,54.50
2018-09-03T05:29:55.987Z,54.60
2018-09-03T05:32:24.354Z,54.60
2018-09-03T05:34:52.696Z,54.60
2018-09-03T05:37:21.150Z,54.50
2018-09-03T05:39:49.502Z,54.60
2018-09-03T05:42:17.825Z,54.50
2018-09-03T05:44:46.253Z,54.50
2018-09-03T05:47:14.658Z,55.00
2018-09-03T05:49:43.047Z,54.50
2018-09-03T05:52:11.451Z,54.50
2018-09-03T05:54:40.119Z,54.50
2018-09-03T05:57:08.640Z,54.30
2018-09-03T05:59:36.950Z,54.50
2018-09-03T06:02:05.328Z,54.50
2018-09-03T06:04:33.732Z,54.50
2018-09-03T06:07:02.132Z,54.50
2018-09-03T06:09:30.616Z,55.10
2018-09-03T06:11:58.945Z,54.50
2018-09-03T06:14:27.275Z,54.40
2018-09-03T06:16:55.661Z,54.60
2018-09-03T06:19:23.978Z,54.50
2018-09-03T06:21:52.473Z,54.50
2018-09-03T06:24:20.805Z,54.50
2018-09-03T06:26:49.149Z,55.20
2018-09-03T06:29:17.449Z,54.50
2018-09-03T06:31:45.785Z,54.70
2018-09-03T06:34:14.219Z,54.60
2018-09-03T06:36:42.564Z,54.60
2018-09-03T06:39:11.016Z,54.70
2018-09-03T06:41:39.423Z,54.60
2018-09-03T06:44:07.774Z,54.70
2018-09-03T06:46:36.149Z,54.70
2018-09-03T06:49:04.523Z,54.70
2018-09-03T06:51:33.310Z,54.80
2018-09-03T06:54:01.729Z,54.80
2018-09-03T06:56:30.529Z,54.80
2018-09-03T06:58:58.890Z,54.90
2018-09-03T07:01:27.206Z,54.90
2018-09-03T07:03:55.553Z,54.90
2018-09-03T07:06:23.936Z,54.90
2018-09-03T07:08:52.251Z,55.10
2018-09-03T07:11:20.592Z,55.00
2018-09-03T07:13:48.999Z,55.10
2018-09-03T07:16:17.313Z,55.10
2018-09-03T07:18:45.673Z,55.20
2018-09-03T07:21:13.998Z,54.60
2018-09-03T07:23:42.356Z,55.20
2018-09-03T07:26:10.688Z,55.30
2018-09-03T07:28:39.029Z,55.60
2018-09-03T07:31:07.365Z,55.60
2018-09-03T07:33:35.700Z,55.40
2018-09-03T07:36:04.037Z,55.50
2018-09-03T07:38:32.410Z,55.50
2018-09-03T07:41:00.789Z,56.20
2018-09-03T07:43:29.481Z,55.80
2018-09-03T07:45:58.259Z,55.60
2018-09-03T07:48:26.615Z,55.70
2018-09-03T07:50:54.953Z,55.70
2018-09-03T07:53:23.320Z,55.70
2018-09-03T07:55:51.745Z,56.10
2018-09-03T07:58:20.091Z,55.70
2018-09-03T08:00:48.391Z,55.60
2018-09-03T08:03:16.736Z,55.70
2018-09-03T08:05:45.207Z,55.80
2018-09-03T08:08:13.538Z,56.00
2018-09-03T08:10:41.926Z,56.00
2018-09-03T08:13:13.647Z,55.90
2018-09-03T08:15:42.050Z,56.00
2018-09-03T08:18:10.398Z,56.10
2018-09-03T08:20:38.735Z,56.70
2018-09-03T08:23:07.187Z,56.00
2018-09-03T08:25:35.564Z,56.00
2018-09-03T08:28:03.993Z,56.00
2018-09-03T08:30:32.436Z,56.50
2018-09-03T08:33:00.824Z,57.00
2018-09-03T08:35:29.203Z,56.50
2018-09-03T08:37:57.515Z,56.60
2018-09-03T08:40:25.838Z,56.20
2018-09-03T08:42:54.155Z,56.60
2018-09-03T08:45:22.495Z,56.50
2018-09-03T08:47:50.822Z,56.60
2018-09-03T08:50:19.271Z,56.40
2018-09-03T08:52:47.628Z,56.60
2018-09-03T08:55:15.945Z,56.20
2018-09-03T08:57:44.285Z,56.50
2018-09-03T09:00:12.676Z,56.60
2018-09-03T09:02:41.048Z,56.40
2018-09-03T09:05:09.347Z,56.90
2018-09-03T09:07:37.704Z,56.60
2018-09-03T09:10:06.111Z,56.90
2018-09-03T09:12:34.470Z,57.00
2018-09-03T09:15:02.864Z,57.10
2018-09-03T09:17:31.248Z,56.90
2018-09-03T09:19:59.702Z,57.30
2018-09-03T09:22:28.041Z,57.30
2018-09-03T09:24:56.797Z,57.20
2018-09-03T09:27:25.149Z,57.30
2018-09-03T09:29:53.500Z,57.20
2018-09-03T09:32:21.825Z,57.20
2018-09-03T09:34:50.166Z,57.10
2018-09-03T09:37:18.483Z,57.10
2018-09-03T09:39:46.826Z,57.40
2018-09-03T09:42:15.163Z,57.30
2018-09-03T09:44:43.506Z,57.30
2018-09-03T09:47:11.830Z,57.60
2018-09-03T09:49:40.174Z,58.20
2018-09-03T09:52:08.519Z,57.90
2018-09-03T09:54:36.871Z,57.80
2018-09-03T09:57:05.484Z,57.80
2018-09-03T09:59:33.942Z,57.90
2018-09-03T10:02:02.639Z,58.20
2018-09-03T10:04:30.984Z,58.40
2018-09-03T10:06:59.368Z,58.50
2018-09-03T10:09:27.827Z,58.30
2018-09-03T10:11:56.167Z,58.10
2018-09-03T10:14:24.563Z,58.30
2018-09-03T10:16:52.868Z,58.40
2018-09-03T10:19:21.201Z,58.40
2018-09-03T10:21:49.500Z,58.50
2018-09-03T10:24:17.816Z,58.70
2018-09-03T10:26:46.140Z,58.70
2018-09-03T10:29:15.100Z,58.70
2018-09-03T10:31:43.441Z,59.60
2018-09-03T10:34:11.800Z,59.00
2018-09-03T10:36:40.152Z,59.00
2018-09-03T10:39:08.635Z,59.10
2018-09-03T10:41:37.240Z,58.80
2018-09-03T10:44:05.807Z,59.10
2018-09-03T10:46:34.148Z,59.10
2018-09-03T10:49:02.558Z,58.80
2018-09-03T10:51:30.860Z,59.70
2018-09-03T10:53:59.190Z,59.00
2018-09-03T10:56:27.501Z,59.10
2018-09-03T10:58:55.952Z,59.10
2018-09-03T11:01:24.862Z,59.10
2018-09-03T11:03:53.159Z,58.70
2018-09-03T11:06:21.516Z,59.10
2018-09-03T11:08:49.805Z,59.20
2018-09-03T11:11:18.119Z,59.20
2018-09-03T11:13:46.476Z,59.20
2018-09-03T11:16:14.819Z,59.30
2018-09-03T11:18:43.151Z,59.00
2018-09-03T11:21:11.728Z,59.20
2018-09-03T11:23:40.065Z,59.20
2018-09-03T11:26:08.379Z,59.40
2018-09-03T11:28:36.764Z,59.00
2018-09-03T11:31:05.093Z,59.20
2018-09-03T11:33:33.444Z,59.20
2018-09-03T11:36:01.743Z,59.20
2018-09-03T11:38:30.057Z,59.20
2018-09-03T11:40:58.419Z,59.20
2018-09-03T11:43:26.716Z,59.50
2018-09-03T11:45:55.059Z,59.00
2018-09-03T11:48:23.516Z,59.50
2018-09-03T11:50:51.920Z,59.20
2018-09-03T11:53:20.280Z,59.40
2018-09-03T11:55:48.656Z,59.50
2018-09-03T11:58:16.976Z,59.30
2018-09-03T12:00:45.362Z,59.60
2018-09-03T12:03:13.705Z,59.60
2018-09-03T12:05:42.053Z,59.70
2018-09-03T12:08:10.461Z,59.70
2018-09-03T12:10:38.735Z,59.60
2018-09-03T12:13:07.182Z,59.50
2018-09-03T12:15:40.269Z,59.50
2018-09-03T12:18:08.611Z,59.60
2018-09-03T12:20:36.965Z,59.40
2018-09-03T12:23:05.300Z,59.60
2018-09-03T12:25:33.684Z,59.60
2018-09-03T12:28:02.017Z,59.50
2018-09-03T12:30:30.356Z,59.30
2018-09-03T12:32:58.754Z,59.40
2018-09-03T12:35:27.082Z,59.70
2018-09-03T12:37:55.396Z,60.50
2018-09-03T12:40:23.756Z,59.70
2018-09-03T12:42:52.227Z,59.80
2018-09-03T12:45:24.856Z,60.60
2018-09-03T12:47:53.180Z,60.10
2018-09-03T12:50:21.583Z,60.00
2018-09-03T12:52:50.120Z,60.10
2018-09-03T12:55:18.669Z,60.40
2018-09-03T12:57:46.996Z,60.50
2018-09-03T13:00:20.318Z,60.50
2018-09-03T13:02:49.411Z,60.20
2018-09-03T13:05:18.555Z,60.80
2018-09-03T13:07:46.850Z,60.70
2018-09-03T13:10:15.424Z,60.50
2018-09-03T13:12:43.759Z,60.60
2018-09-03T13:15:12.186Z,60.60
2018-09-03T13:17:40.528Z,60.70
2018-09-03T13:20:08.883Z,60.70
2018-09-03T13:22:37.257Z,60.60
2018-09-03T13:25:05.622Z,60.80
2018-09-03T13:27:33.934Z,60.90
2018-09-03T13:30:02.346Z,60.30
2018-09-03T13:32:31.081Z,60.70
2018-09-03T13:34:59.404Z,60.80
2018-09-03T13:37:27.758Z,61.70
2018-09-03T13:39:56.084Z,60.80
2018-09-03T13:42:24.416Z,60.80
2018-09-03T13:44:52.830Z,60.80
2018-09-03T13:47:21.288Z,60.60
2018-09-03T13:49:49.825Z,60.70
2018-09-03T13:52:18.485Z,60.70
2018-09-03T13:54:47.081Z,60.60
2018-09-03T13:57:15.494Z,60.80
2018-09-03T13:59:45.826Z,60.80
2018-09-03T14:02:14.259Z,60.80
2018-09-03T14:04:42.598Z,60.80
2018-09-03T14:07:10.969Z,61.20
2018-09-03T14:09:39.378Z,60.70
2018-09-03T14:12:08.508Z,60.80
2018-09-03T14:14:36.785Z,60.70
2018-09-03T14:17:05.124Z,60.60
2018-09-03T14:19:33.483Z,60.50
2018-09-03T14:22:01.757Z,60.40
2018-09-03T14:24:30.102Z,60.70
2018-09-03T14:26:58.453Z,60.40
2018-09-03T14:29:26.755Z,60.50
2018-09-03T14:31:55.270Z,61.10
2018-09-03T14:34:23.656Z,60.70
2018-09-03T14:36:51.984Z,60.80
2018-09-03T14:39:20.303Z,60.70
2018-09-03T14:41:48.608Z,60.50
2018-09-03T14:44:16.923Z,60.80
2018-09-03T14:46:45.225Z,61.00
2018-09-03T14:49:13.549Z,61.70
2018-09-03T14:51:41.847Z,60.80
2018-09-03T14:54:10.195Z,61.00
2018-09-03T14:56:38.645Z,60.90
2018-09-03T14:59:07.009Z,61.20
2018-09-03T15:01:35.340Z,61.10
2018-09-03T15:04:03.829Z,61.60
2018-09-03T15:06:32.107Z,61.50
2018-09-03T15:09:00.432Z,61.70
2018-09-03T15:11:28.756Z,61.20
2018-09-03T15:13:58.772Z,62.10
2018-09-03T15:16:29.472Z,62.10
2018-09-03T15:18:59.368Z,62.10
2018-09-03T15:21:27.724Z,62.30
2018-09-03T15:23:56.090Z,62.10
2018-09-03T15:26:24.627Z,62.00
2018-09-03T15:28:53.284Z,62.50
2018-09-03T15:31:21.611Z,62.60
2018-09-03T15:33:49.948Z,63.00
2018-09-03T15:36:18.422Z,62.70
2018-09-03T15:38:46.660Z,62.60
2018-09-03T15:41:15.026Z,62.80
2018-09-03T15:43:43.408Z,63.00
2018-09-03T15:46:11.720Z,62.50
2018-09-03T15:48:40.072Z,63.00
2018-09-03T15:51:08.408Z,62.20
2018-09-03T15:53:36.751Z,63.20
2018-09-03T15:56:06.107Z,63.20
2018-09-03T15:58:34.479Z,63.70
2018-09-03T16:01:02.788Z,63.50
2018-09-03T16:03:31.109Z,63.50
2018-09-03T16:05:59.470Z,63.60
2018-09-03T16:08:27.888Z,63.70
2018-09-03T16:10:56.214Z,63.30
2018-09-03T16:13:24.596Z,63.60
2018-09-03T16:15:52.904Z,63.70
2018-09-03T16:18:21.234Z,63.50
2018-09-03T16:20:49.573Z,63.80
2018-09-03T16:23:17.902Z,63.60
2018-09-03T16:25:46.184Z,63.70
2018-09-03T16:28:14.549Z,63.40
2018-09-03T16:30:42.879Z,63.50
2018-09-03T16:33:11.236Z,63.20
2018-09-03T16:35:39.740Z,63.40
2018-09-03T16:38:08.058Z,63.30
2018-09-03T16:40:36.462Z,63.60
2018-09-03T16:43:04.813Z,63.30
2018-09-03T16:45:33.248Z,63.40
2018-09-03T16:48:01.611Z,63.50
2018-09-03T16:50:30.064Z,63.40
2018-09-03T16:52:58.638Z,62.80
2018-09-03T16:55:26.947Z,63.40
2018-09-03T16:57:55.393Z,63.40
2018-09-03T17:00:23.708Z,63.40
2018-09-03T17:02:52.085Z,63.40
2018-09-03T17:05:20.459Z,63.60
2018-09-03T17:07:48.769Z,63.50
2018-09-03T17:10:17.127Z,63.30
2018-09-03T17:12:45.491Z,63.40
2018-09-03T17:15:13.816Z,63.30
2018-09-03T17:17:42.260Z,63.20
2018-09-03T17:20:10.627Z,62.90
2018-09-03T17:22:39.000Z,62.90
2018-09-03T17:25:07.394Z,63.00
2018-09-03T17:27:35.825Z,63.20
2018-09-03T17:30:04.234Z,63.10
2018-09-03T17:32:32.582Z,63.20
2018-09-03T17:35:00.968Z,63.30
2018-09-03T17:37:29.288Z,63.10
2018-09-03T17:39:57.616Z,63.00
2018-09-03T17:42:25.933Z,63.30
2018-09-03T17:44:54.263Z,63.30
2018-09-03T17:47:22.569Z,63.40
2018-09-03T17:49:51.004Z,63.40
2018-09-03T17:52:19.251Z,63.40
2018-09-03T17:54:47.545Z,63.30
2018-09-03T17:57:15.880Z,63.40
2018-09-03T17:59:44.263Z,63.10
2018-09-03T18:02:12.843Z,63.30
2018-09-03T18:04:41.258Z,63.30
2018-09-03T18:07:09.580Z,64.20
2018-09-03T18:09:37.915Z,63.10
2018-09-03T18:12:06.295Z,63.80
2018-09-03T18:14:34.613Z,63.30
2018-09-03T18:17:02.946Z,62.80
2018-09-03T18:19:31.345Z,63.30
2018-09-03T18:21:59.693Z,63.00
2018-09-03T18:24:28.017Z,62.70
2018-09-03T18:26:56.355Z,63.10
2018-09-03T18:29:24.835Z,63.10
2018-09-03T18:31:53.269Z,63.00
2018-09-03T18:34:21.685Z,62.70
2018-09-03T18:36:49.979Z,62.90
2018-09-03T18:39:18.425Z,63.00
2018-09-03T18:41:46.754Z,63.10
2018-09-03T18:44:15.026Z,62.70
2018-09-03T18:46:43.384Z,62.50
2018-09-03T18:49:11.754Z,63.00
2018-09-03T18:51:40.097Z,62.80
2018-09-03T18:54:08.979Z,62.90
2018-09-03T18:56:37.324Z,62.90
2018-09-03T18:59:05.960Z,62.90
2018-09-03T19:01:34.291Z,62.80
2018-09-03T19:04:02.639Z,63.00
2018-09-03T19:06:31.610Z,62.70
2018-09-03T19:09:00.606Z,62.80
2018-09-03T19:11:29.382Z,62.20
2018-09-03T19:13:57.729Z,62.50
2018-09-03T19:16:26.104Z,63.20
2018-09-03T19:18:54.733Z,63.50
2018-09-03T19:21:23.155Z,63.10
2018-09-03T19:23:51.524Z,63.40
2018-09-03T19:26:20.284Z,63.50
2018-09-03T19:28:48.965Z,63.30
2018-09-03T19:31:17.347Z,63.40
2018-09-03T19:33:45.749Z,64.50
2018-09-03T19:36:14.079Z,63.50
2018-09-03T19:38:42.425Z,63.60
2018-09-03T19:41:10.851Z,63.70
2018-09-03T19:43:39.165Z,63.80
2018-09-03T19:46:07.514Z,64.30
2018-09-03T19:48:35.860Z,63.60
2018-09-03T19:51:04.200Z,63.50
2018-09-03T19:53:32.537Z,63.50
2018-09-03T19:56:00.800Z,63.60
2018-09-03T19:58:29.122Z,63.20
2018-09-03T20:00:57.407Z,63.60
2018-09-03T20:03:25.724Z,63.30
2018-09-03T20:05:54.096Z,63.30
2018-09-03T20:08:22.510Z,63.50
2018-09-03T20:10:50.880Z,63.50
2018-09-03T20:13:19.248Z,63.00
2018-09-03T20:15:47.543Z,63.20
2018-09-03T20:18:15.848Z,63.20
2018-09-03T20:20:44.192Z,63.20
2018-09-03T20:23:12.645Z,62.80
2018-09-03T20:25:41.081Z,63.00
2018-09-03T20:28:09.381Z,63.30
2018-09-03T20:30:37.693Z,63.00
2018-09-03T20:33:05.975Z,62.90
2018-09-03T20:35:34.344Z,63.20
2018-09-03T20:38:02.661Z,63.10
2018-09-03T20:40:30.951Z,63.20
2018-09-03T20:42:59.316Z,63.20
2018-09-03T20:45:27.687Z,63.10
2018-09-03T20:47:56.022Z,63.00
2018-09-03T20:50:24.299Z,63.00
2018-09-03T20:52:52.647Z,62.80
2018-09-03T20:55:20.954Z,62.90
2018-09-03T20:57:49.259Z,63.10
2018-09-03T21:00:17.532Z,63.00
2018-09-03T21:02:45.850Z,62.80
2018-09-03T21:05:14.164Z,63.10
2018-09-03T21:07:42.529Z,62.80
2018-09-03T21:10:10.833Z,63.00
2018-09-03T21:12:39.161Z,62.70
2018-09-03T21:15:07.487Z,62.90
2018-09-03T21:17:35.818Z,62.70
2018-09-03T21:20:04.186Z,62.80
2018-09-03T21:22:32.524Z,63.00
2018-09-03T21:25:00.824Z,62.90
2018-09-03T21:27:29.243Z,63.10
2018-09-03T21:29:57.813Z,62.80
2018-09-03T21:32:26.208Z,62.80
2018-09-03T21:34:54.601Z,62.60
2018-09-03T21:37:22.907Z,63.00
2018-09-03T21:39:51.264Z,63.10
2018-09-03T21:42:19.573Z,63.10
2018-09-03T21:44:47.895Z,62.80
2018-09-03T21:47:16.306Z,63.20
2018-09-03T21:49:44.606Z,63.40
2018-09-03T21:52:12.903Z,63.10
2018-09-03T21:54:41.234Z,63.20
2018-09-03T21:57:09.823Z,63.10
2018-09-03T21:59:38.140Z,63.30
2018-09-03T22:02:09.131Z,63.30
2018-09-03T22:04:38.546Z,63.40
2018-09-03T22:07:07.210Z,62.80
2018-09-03T22:09:35.511Z,63.40
2018-09-03T22:12:03.823Z,62.90
2018-09-03T22:14:32.227Z,63.50
2018-09-03T22:17:00.510Z,63.50
2018-09-03T22:19:28.853Z,63.20
2018-09-03T22:21:57.194Z,63.30
2018-09-03T22:24:25.616Z,63.30
2018-09-03T22:26:53.941Z,63.90
2018-09-03T22:29:22.240Z,63.10
2018-09-03T22:31:50.572Z,63.50
2018-09-03T22:34:20.716Z,63.20
2018-09-03T22:36:49.017Z,63.20
2018-09-03T22:39:17.329Z,63.60
2018-09-03T22:41:45.675Z,63.50
2018-09-03T22:44:14.051Z,63.60
2018-09-03T22:46:42.377Z,63.60
2018-09-03T22:49:10.680Z,62.60
2018-09-03T22:51:39.650Z,63.80
2018-09-03T22:54:08.013Z,63.70
2018-09-03T22:56:36.336Z,63.40
2018-09-03T22:59:04.620Z,63.80
2018-09-03T23:01:33.015Z,64.10
2018-09-03T23:04:01.311Z,63.80
2018-09-03T23:06:29.632Z,63.70
2018-09-03T23:08:57.991Z,63.80
2018-09-03T23:11:26.301Z,63.60
2018-09-03T23:13:54.579Z,64.00
2018-09-03T23:16:22.920Z,64.10
2018-09-03T23:18:51.241Z,63.60
2018-09-03T23:21:19.585Z,64.10
2018-09-03T23:23:47.872Z,63.90
2018-09-03T23:26:16.188Z,63.30
2018-09-03T23:28:44.507Z,64.10
2018-09-03T23:31:12.807Z,63.80
2018-09-03T23:33:41.193Z,64.10
2018-09-03T23:36:09.592Z,64.50
2018-09-03T23:38:37.953Z,64.50
2018-09-03T23:41:06.231Z,64.60
2018-09-03T23:43:34.740Z,64.60
2018-09-03T23:46:03.028Z,64.80
2018-09-03T23:48:31.334Z,64.00
2018-09-03T23:50:59.628Z,64.00
2018-09-03T23:53:27.912Z,64.80
2018-09-03T23:55:56.237Z,64.60
2018-09-03T23:58:24.541Z,64.20
